Time;durP1;ratioP1;P1;durP2;ratioP2;P2;SDS_P1;SDS_P2;PMS_P1;PMS_P2;Temp;Humidity;BMP_temperature;BMP_pressure;BME280_temperature;BME280_humidity;BME280_pressure;Samples;Min_cycle;Max_cycle;Signal;HPM_P1;HPM_P2
2021/05/15 00:00:31;;;;;;;7.97;7.05;;;;;;;13.51;36.82;100289.94;4985663;28;97841;-74
2021/05/15 00:02:58;;;;;;;7.45;6.75;;;;;;;13.53;36.76;100288.16;4984962;28;97483;-74
2021/05/15 00:05:26;;;;;;;7.50;6.85;;;;;;;13.52;36.89;100284.56;4987427;28;97723;-75
2021/05/15 00:07:53;;;;;;;7.82;7.07;;;;;;;13.54;36.90;100282.81;4987082;28;99096;-74
2021/05/15 00:10:21;;;;;;;7.78;7.07;;;;;;;13.54;37.07;100285.47;4982682;28;97241;-73
2021/05/15 00:12:48;;;;;;;8.02;7.05;;;;;;;13.55;37.23;100281.03;4984738;28;97405;-73
2021/05/15 00:15:15;;;;;;;7.82;7.03;;;;;;;13.53;37.29;100286.34;4983484;28;98937;-73
2021/05/15 00:17:42;;;;;;;7.97;7.17;;;;;;;13.56;37.16;100282.78;4981521;28;97316;-74
2021/05/15 00:20:12;;;;;;;7.93;6.00;;;;;;;13.52;37.09;100289.03;4984601;28;97161;-73
2021/05/15 00:22:40;;;;;;;6.55;5.80;;;;;;;13.51;37.00;100287.25;4985500;28;97735;-73
2021/05/15 00:25:08;;;;;;;5.65;5.13;;;;;;;13.45;37.01;100280.13;4983422;28;96738;-74
2021/05/15 00:27:36;;;;;;;6.53;5.90;;;;;;;13.43;37.01;100271.19;4985319;28;99364;-74
2021/05/15 00:30:06;;;;;;;7.03;6.25;;;;;;;13.42;36.72;100269.44;4984450;28;96858;-74
2021/05/15 00:32:34;;;;;;;9.27;6.18;;;;;;;13.37;36.97;100268.50;4987443;28;96976;-74
2021/05/15 00:35:03;;;;;;;7.20;6.22;;;;;;;13.32;36.97;100262.28;4987441;28;96871;-74
2021/05/15 00:37:30;;;;;;;6.80;6.13;;;;;;;13.30;36.96;100266.72;4987107;28;98385;-74
2021/05/15 00:39:58;;;;;;;7.38;6.55;;;;;;;13.26;37.08;100274.75;4988177;28;96736;-73
2021/05/15 00:42:26;;;;;;;8.55;6.55;;;;;;;13.21;37.03;100269.38;4987019;28;96789;-73
2021/05/15 00:44:52;;;;;;;6.70;6.07;;;;;;;13.17;37.31;100270.25;4987590;28;96745;-73
2021/05/15 00:47:21;;;;;;;7.00;5.68;;;;;;;13.16;37.05;100265.81;4983601;28;97408;-74
2021/05/15 00:49:49;;;;;;;9.70;7.75;;;;;;;13.17;37.40;100262.22;4982930;28;97737;-73
2021/05/15 00:52:17;;;;;;;7.15;6.10;;;;;;;13.23;37.38;100267.59;4984411;28;98193;-73
2021/05/15 00:54:44;;;;;;;8.30;6.60;;;;;;;13.25;37.07;100254.25;4984734;28;98474;-74
2021/05/15 00:57:12;;;;;;;8.90;6.28;;;;;;;13.23;37.18;100254.25;4987408;28;98021;-73
2021/05/15 00:59:41;;;;;;;7.80;7.00;;;;;;;13.19;37.04;100257.78;4987790;28;97269;-74
2021/05/15 01:02:09;;;;;;;6.15;5.55;;;;;;;13.17;37.11;100256.91;4986407;28;98344;-74
2021/05/15 01:04:38;;;;;;;8.27;6.60;;;;;;;13.17;36.91;100255.13;4986351;28;97083;-74
2021/05/15 01:07:08;;;;;;;7.20;6.40;;;;;;;13.16;37.03;100255.13;4988006;28;98131;-74
2021/05/15 01:09:35;;;;;;;6.88;6.10;;;;;;;13.14;37.09;100246.22;4987441;28;97513;-73
2021/05/15 01:12:04;;;;;;;6.68;6.00;;;;;;;13.15;37.12;100243.53;4988761;28;97093;-74
2021/05/15 01:14:31;;;;;;;6.82;6.13;;;;;;;13.15;37.01;100247.97;4987642;28;100373;-73
2021/05/15 01:16:58;;;;;;;8.65;7.75;;;;;;;13.17;37.76;100240.00;4984872;28;99599;-73
2021/05/15 01:19:24;;;;;;;7.35;6.30;;;;;;;13.20;37.83;100246.22;4986372;28;97504;-74
2021/05/15 01:21:52;;;;;;;6.80;6.10;;;;;;;13.17;37.39;100241.75;4988398;28;97423;-74
2021/05/15 01:24:18;;;;;;;8.75;6.50;;;;;;;13.15;37.52;100238.19;4987603;28;99296;-74
2021/05/15 01:26:45;;;;;;;9.57;5.88;;;;;;;13.15;37.35;100248.88;4987462;28;99041;-74
2021/05/15 01:29:12;;;;;;;7.75;6.72;;;;;;;13.15;37.31;100232.84;4986243;28;96766;-74
2021/05/15 01:31:39;;;;;;;7.47;6.72;;;;;;;13.16;37.34;100236.44;4988581;28;97526;-74
2021/05/15 01:34:06;;;;;;;7.55;6.72;;;;;;;13.18;37.39;100237.31;4985440;28;97056;-74
2021/05/15 01:36:39;;;;;;;10.27;7.10;;;;;;;13.17;37.15;100238.19;4986728;28;97437;-73
2021/05/15 01:39:08;;;;;;;7.90;7.10;;;;;;;13.13;37.42;100231.94;4986016;28;97470;-74
2021/05/15 01:41:34;;;;;;;7.50;6.85;;;;;;;13.17;37.24;100231.06;4987863;28;97285;-73
2021/05/15 01:44:01;;;;;;;8.93;6.95;;;;;;;13.18;37.26;100227.50;4985911;28;97902;-74
2021/05/15 01:46:28;;;;;;;7.75;6.90;;;;;;;13.20;37.24;100238.22;4987172;28;98076;-74
2021/05/15 01:48:54;;;;;;;9.95;7.63;;;;;;;13.22;37.23;100233.78;4986803;28;97649;-74
2021/05/15 01:51:21;;;;;;;8.98;7.45;;;;;;;13.24;37.07;100231.97;4987114;28;96946;-74
2021/05/15 01:53:49;;;;;;;9.13;8.10;;;;;;;13.23;37.06;100227.53;4986221;28;99127;-74
2021/05/15 01:56:18;;;;;;;8.25;7.25;;;;;;;13.26;37.10;100224.84;4986014;28;97385;-74
2021/05/15 01:58:45;;;;;;;7.93;7.07;;;;;;;13.27;37.12;100220.41;4983769;28;97213;-74
2021/05/15 02:01:12;;;;;;;11.82;7.32;;;;;;;13.27;37.01;100226.66;4985156;28;96947;-74
2021/05/15 02:03:41;;;;;;;8.60;7.00;;;;;;;13.32;37.26;100231.97;4985906;28;99252;-74
2021/05/15 02:06:08;;;;;;;9.32;7.78;;;;;;;13.26;37.29;100230.19;4985630;28;99216;-73
2021/05/15 02:08:35;;;;;;;11.38;7.85;;;;;;;13.26;37.29;100224.84;4985087;28;96964;-73
2021/05/15 02:11:03;;;;;;;10.13;8.40;;;;;;;13.27;37.23;100226.66;4985701;28;97737;-73
2021/05/15 02:13:31;;;;;;;10.70;9.13;;;;;;;13.28;37.15;100223.06;4986284;28;97914;-73
2021/05/15 02:16:00;;;;;;;9.20;8.25;;;;;;;13.28;37.27;100208.81;4986244;28;98858;-73
2021/05/15 02:18:27;;;;;;;9.75;7.72;;;;;;;13.31;37.15;100207.06;4985969;28;97444;-73
2021/05/15 02:20:55;;;;;;;8.68;7.65;;;;;;;13.31;37.21;100216.84;4987375;28;97290;-74
2021/05/15 02:23:24;;;;;;;8.18;7.38;;;;;;;13.32;37.13;100206.16;4986387;28;97885;-73
2021/05/15 02:25:53;;;;;;;10.38;8.18;;;;;;;13.33;37.23;100199.91;4986437;28;97963;-74
2021/05/15 02:28:20;;;;;;;7.70;6.90;;;;;;;13.35;37.09;100198.13;4987017;28;97164;-74
2021/05/15 02:30:48;;;;;;;9.00;8.10;;;;;;;13.33;37.28;100194.56;4986442;28;97295;-74
2021/05/15 02:33:14;;;;;;;8.05;7.25;;;;;;;13.32;37.17;100190.13;4983814;28;98103;-74
2021/05/15 02:35:41;;;;;;;10.38;9.25;;;;;;;13.29;38.00;100182.13;4985175;28;96757;-73
2021/05/15 02:38:10;;;;;;;8.88;7.97;;;;;;;13.36;37.66;100197.25;4986916;28;97158;-73
2021/05/15 02:40:37;;;;;;;9.38;7.10;;;;;;;13.30;37.58;100205.25;4984893;28;97667;-73
2021/05/15 02:43:04;;;;;;;8.10;7.10;;;;;;;13.30;37.49;100201.69;4985893;28;98015;-74
2021/05/15 02:45:31;;;;;;;8.45;6.80;;;;;;;13.29;37.63;100205.25;4985474;28;96915;-74
2021/05/15 02:47:58;;;;;;;9.05;7.38;;;;;;;13.23;37.55;100202.56;4986639;28;97642;-74
2021/05/15 02:50:25;;;;;;;9.35;7.72;;;;;;;13.21;37.65;100199.91;4985622;28;97910;-74
2021/05/15 02:52:53;;;;;;;9.07;7.55;;;;;;;13.17;37.65;100196.34;4984682;28;97252;-74
2021/05/15 02:55:21;;;;;;;8.50;7.60;;;;;;;13.20;37.48;100192.81;4985194;28;97791;-73
2021/05/15 02:57:49;;;;;;;10.48;8.18;;;;;;;13.17;37.70;100198.13;4986074;28;97328;-73
2021/05/15 03:00:17;;;;;;;14.20;8.68;;;;;;;13.17;37.52;100200.78;4985487;28;97625;-73
2021/05/15 03:02:44;;;;;;;9.68;7.88;;;;;;;13.17;37.54;100182.09;4987019;28;97291;-73
2021/05/15 03:05:13;;;;;;;11.57;9.20;;;;;;;13.15;37.76;100183.88;4985218;28;97802;-75
2021/05/15 03:07:40;;;;;;;11.07;9.13;;;;;;;13.13;37.69;100186.53;4985127;28;97154;-74
2021/05/15 03:10:09;;;;;;;17.00;14.27;;;;;;;13.08;38.33;100187.41;4982844;28;96874;-73
2021/05/15 03:12:36;;;;;;;16.55;12.25;;;;;;;13.10;38.04;100189.22;4985159;28;99423;-74
2021/05/15 03:15:04;;;;;;;16.23;11.73;;;;;;;13.06;38.05;100184.75;4985971;28;97224;-74
2021/05/15 03:17:31;;;;;;;21.02;15.85;;;;;;;13.02;38.71;100190.09;4984760;28;96927;-74
2021/05/15 03:19:58;;;;;;;18.25;13.80;;;;;;;13.02;38.53;100192.78;4983671;28;97014;-73
2021/05/15 03:22:26;;;;;;;18.00;14.18;;;;;;;12.95;38.41;100193.59;4986393;28;101635;-73
2021/05/15 03:24:52;;;;;;;18.33;13.95;;;;;;;12.79;38.64;100189.09;4986261;28;97830;-74
2021/05/15 03:27:18;;;;;;;19.52;15.13;;;;;;;12.70;38.47;100186.41;4985130;28;97334;-74
2021/05/15 03:29:45;;;;;;;19.23;13.52;;;;;;;12.60;38.54;100188.16;4986090;28;97298;-74
2021/05/15 03:32:11;;;;;;;25.17;18.97;;;;;;;12.60;39.15;100182.81;4984588;28;97487;-72
2021/05/15 03:34:38;;;;;;;20.33;15.50;;;;;;;12.60;38.85;100187.28;4985970;28;99236;-74
2021/05/15 03:37:05;;;;;;;19.60;15.02;;;;;;;12.58;38.89;100191.72;4989684;28;96740;-75
2021/05/15 03:39:32;;;;;;;18.35;14.45;;;;;;;12.55;38.61;100191.69;4993266;28;98198;-74
2021/05/15 03:41:59;;;;;;;25.33;19.30;;;;;;;12.56;39.01;100197.06;4990586;28;97876;-74
2021/05/15 03:44:26;;;;;;;19.73;15.48;;;;;;;12.57;38.83;100196.16;4985659;28;97549;-74
2021/05/15 03:46:52;;;;;;;14.60;12.68;;;;;;;12.60;38.80;100204.16;4986466;28;96927;-74
2021/05/15 03:49:19;;;;;;;;;;;;;;;12.64;38.46;100197.97;4986770;28;97242;-73
2021/05/15 03:51:46;;;;;;;22.58;17.70;;;;;;;12.65;39.00;100189.09;4985403;28;97877;-74
2021/05/15 03:54:14;;;;;;;22.58;14.00;;;;;;;12.72;38.60;100196.22;4985740;28;99184;-73
2021/05/15 03:56:41;;;;;;;23.88;18.80;;;;;;;12.73;38.86;100202.47;4983835;28;97399;-74
2021/05/15 03:59:07;;;;;;;17.60;14.13;;;;;;;12.78;38.55;100192.69;4985112;28;97621;-73
2021/05/15 04:01:34;;;;;;;21.70;18.40;;;;;;;12.76;38.82;100194.44;4982266;28;98219;-74
2021/05/15 04:04:01;;;;;;;20.90;15.38;;;;;;;12.83;38.70;100185.56;4986224;28;101729;-74
2021/05/15 04:06:27;;;;;;;17.98;14.60;;;;;;;12.80;38.56;100186.44;4982719;28;96866;-73
2021/05/15 04:08:54;;;;;;;18.85;14.10;;;;;;;12.80;38.48;100190.91;4983725;28;97643;-74
2021/05/15 04:11:20;;;;;;;22.20;18.52;;;;;;;12.79;38.89;100186.44;4983442;28;96913;-73
2021/05/15 04:13:51;;;;;;;23.70;18.92;;;;;;;12.78;38.99;100176.66;4984090;28;100844;-74
2021/05/15 04:16:24;;;;;;;20.00;15.50;;;;;;;12.84;38.68;100179.31;4986177;28;97173;-74
2021/05/15 04:18:51;;;;;;;22.88;18.40;;;;;;;12.80;39.08;100185.56;4983241;28;98250;-74
2021/05/15 04:21:18;;;;;;;19.75;15.57;;;;;;;12.87;38.75;100176.69;4981203;28;97429;-73
2021/05/15 04:23:44;;;;;;;18.60;14.48;;;;;;;12.87;38.70;100177.59;4984270;28;97728;-73
2021/05/15 04:26:11;;;;;;;19.40;15.32;;;;;;;12.83;38.64;100186.47;4986044;28;96782;-73
2021/05/15 04:28:38;;;;;;;20.27;14.85;;;;;;;12.81;38.52;100192.69;4983444;28;97602;-73
2021/05/15 04:31:05;;;;;;;19.83;15.13;;;;;;;12.79;38.49;100194.44;4983393;28;98058;-74
2021/05/15 04:33:32;;;;;;;23.80;19.83;;;;;;;12.76;38.82;100194.44;4987378;28;99414;-73
2021/05/15 04:36:00;;;;;;;25.05;20.23;;;;;;;12.73;39.17;100199.78;4986107;28;97179;-73
2021/05/15 04:38:27;;;;;;;19.38;15.88;;;;;;;12.76;38.79;100202.47;4988472;28;97769;-74
2021/05/15 04:40:54;;;;;;;21.88;19.48;;;;;;;12.74;39.02;100198.88;4986522;28;97919;-74
2021/05/15 04:43:21;;;;;;;19.08;14.23;;;;;;;12.77;38.93;100199.78;4986754;28;99139;-74
2021/05/15 04:45:47;;;;;;;20.52;15.27;;;;;;;12.64;39.05;100197.06;4987692;28;97648;-73
2021/05/15 04:48:15;;;;;;;;;;;;;;;12.59;38.99;100198.81;4988592;28;96772;-74
2021/05/15 04:50:41;;;;;;;24.30;18.90;;;;;;;12.64;39.27;100205.06;4985433;28;99642;-75
2021/05/15 04:53:08;;;;;;;53.60;32.33;;;;;;;12.68;39.15;100198.84;4989976;28;99356;-72
2021/05/15 04:55:35;;;;;;;33.53;23.40;;;;;;;12.70;39.27;100186.41;4985369;28;96754;-73
2021/05/15 04:58:01;;;;;;;19.30;15.93;;;;;;;12.80;39.04;100190.91;4988701;28;97066;-73
2021/05/15 05:00:28;;;;;;;19.60;14.32;;;;;;;12.88;38.92;100191.78;4985010;28;98223;-73
2021/05/15 05:02:55;;;;;;;21.65;18.08;;;;;;;12.83;39.24;100193.56;4981334;28;98183;-73
2021/05/15 05:05:22;;;;;;;18.63;14.10;;;;;;;12.99;38.73;100214.06;4980441;28;97550;-73
2021/05/15 05:07:51;;;;;;;23.58;18.35;;;;;;;13.00;39.16;100205.22;4982106;28;96912;-73
2021/05/15 05:10:18;;;;;;;18.10;15.07;;;;;;;13.08;38.73;100208.78;4982161;28;97614;-74
2021/05/15 05:12:44;;;;;;;17.08;13.32;;;;;;;13.10;38.68;100209.69;4987367;28;96658;-74
2021/05/15 05:15:11;;;;;;;15.50;13.40;;;;;;;13.03;38.69;100211.47;4988065;28;98150;-73
2021/05/15 05:17:38;;;;;;;14.18;12.68;;;;;;;13.06;38.54;100215.91;4986807;28;97320;-74
2021/05/15 05:20:06;;;;;;;18.15;13.70;;;;;;;12.96;38.74;100215.00;4986184;28;99461;-73
2021/05/15 05:22:34;;;;;;;16.83;14.00;;;;;;;12.94;38.71;100205.19;4987169;28;97469;-73
2021/05/15 05:25:11;;;;;;;22.67;18.23;;;;;;;12.94;39.11;100213.19;4982030;28;98130;-73
2021/05/15 05:27:40;;;;;;;17.27;14.05;;;;;;;13.01;38.82;100209.66;4986760;28;96881;-73
2021/05/15 05:30:08;;;;;;;18.33;14.05;;;;;;;13.02;38.51;100204.31;4981515;28;97401;-73
2021/05/15 05:32:35;;;;;;;15.77;13.88;;;;;;;12.99;38.58;100201.66;4985243;28;97682;-73
2021/05/15 05:35:01;;;;;;;17.80;14.13;;;;;;;12.99;38.71;100208.75;4984352;28;97609;-73
2021/05/15 05:37:28;;;;;;;15.68;13.35;;;;;;;12.94;38.70;100203.41;4986663;28;96645;-73
2021/05/15 05:39:55;;;;;;;18.20;13.40;;;;;;;12.95;38.77;100206.94;4986405;28;102233;-73
2021/05/15 05:42:22;;;;;;;16.02;14.23;;;;;;;12.97;38.86;100205.16;4979086;28;98134;-73
2021/05/15 05:44:49;;;;;;;16.80;13.48;;;;;;;12.95;38.60;100213.19;4981231;28;96953;-73
2021/05/15 05:47:15;;;;;;;17.15;13.20;;;;;;;12.98;38.59;100217.66;4987902;28;97012;-73
2021/05/15 05:49:42;;;;;;;16.35;13.77;;;;;;;12.98;38.62;100212.31;4987351;28;99240;-73
2021/05/15 05:52:08;;;;;;;20.27;18.10;;;;;;;13.00;38.99;100211.44;4979709;28;98072;-73
2021/05/15 05:54:35;;;;;;;17.23;14.50;;;;;;;13.13;38.70;100215.94;4987325;28;96895;-73
2021/05/15 05:57:03;;;;;;;18.73;14.13;;;;;;;13.20;38.71;100211.50;4988430;28;97387;-73
2021/05/15 05:59:30;;;;;;;14.48;12.80;;;;;;;13.24;38.48;100226.63;4986614;28;99341;-72
2021/05/15 06:01:56;;;;;;;14.93;12.40;;;;;;;13.30;38.32;100226.63;4987092;28;97775;-74
2021/05/15 06:04:23;;;;;;;15.00;12.45;;;;;;;13.30;38.16;100231.97;4988564;28;97323;-74
2021/05/15 06:06:49;;;;;;;19.65;17.52;;;;;;;13.26;38.63;100221.31;4986872;28;97607;-74
2021/05/15 06:09:18;;;;;;;15.80;14.13;;;;;;;13.36;38.41;100221.31;4986092;28;99494;-72
2021/05/15 06:11:47;;;;;;;14.43;12.82;;;;;;;13.36;38.38;100217.75;4983147;28;98054;-73
2021/05/15 06:14:14;;;;;;;15.40;13.20;;;;;;;13.40;38.33;100220.44;4981590;28;97178;-73
2021/05/15 06:16:41;;;;;;;14.43;12.90;;;;;;;13.43;38.16;100216.84;4984777;28;97825;-73
2021/05/15 06:19:07;;;;;;;14.93;13.40;;;;;;;13.44;38.32;100221.31;4980179;28;100128;-73
2021/05/15 06:21:34;;;;;;;16.50;13.02;;;;;;;13.47;37.97;100227.56;4984016;28;99093;-73
2021/05/15 06:24:01;;;;;;;16.10;12.93;;;;;;;13.48;37.97;100220.41;4985274;28;96941;-74
2021/05/15 06:26:28;;;;;;;14.82;13.27;;;;;;;13.49;38.04;100217.75;4984665;28;97196;-73
2021/05/15 06:28:54;;;;;;;18.45;14.10;;;;;;;13.55;37.85;100215.06;4986283;28;97943;-73
2021/05/15 06:31:23;;;;;;;15.55;12.70;;;;;;;13.60;37.75;100226.69;4987124;28;97015;-73
2021/05/15 06:33:50;;;;;;;16.95;13.95;;;;;;;13.63;37.77;100226.66;4985798;28;96882;-73
2021/05/15 06:36:16;;;;;;;16.17;13.55;;;;;;;13.68;37.73;100219.53;4984409;28;97187;-73
2021/05/15 06:38:43;;;;;;;14.10;12.20;;;;;;;13.81;37.49;100221.34;4984925;28;98076;-73
2021/05/15 06:41:09;;;;;;;15.57;13.68;;;;;;;13.85;37.44;100217.78;4985599;28;98505;-74
2021/05/15 06:43:36;;;;;;;14.27;12.10;;;;;;;13.94;37.57;100219.53;4985386;28;97222;-74
2021/05/15 06:46:03;;;;;;;14.13;11.75;;;;;;;14.00;37.22;100209.72;4985378;28;97780;-74
2021/05/15 06:48:30;;;;;;;13.60;11.00;;;;;;;14.04;37.16;100218.63;4985080;28;97876;-74
2021/05/15 06:50:57;;;;;;;12.52;11.07;;;;;;;14.07;36.98;100213.28;4984326;28;100503;-74
2021/05/15 06:53:24;;;;;;;12.88;11.35;;;;;;;14.15;36.90;100206.13;4983472;28;96983;-72
2021/05/15 06:55:50;;;;;;;15.57;11.90;;;;;;;14.21;37.13;100203.41;4985310;28;96916;-72
2021/05/15 06:58:17;;;;;;;11.38;10.27;;;;;;;14.34;36.79;100209.63;4984144;28;97060;-73
2021/05/15 07:00:43;;;;;;;13.77;11.35;;;;;;;14.40;36.67;100197.13;4985392;28;97971;-72
2021/05/15 07:03:10;;;;;;;13.25;10.82;;;;;;;14.51;36.45;100207.78;4983300;28;97379;-73
2021/05/15 07:05:37;;;;;;;12.25;10.98;;;;;;;14.55;36.72;100204.19;4986125;28;96762;-73
2021/05/15 07:08:05;;;;;;;10.73;9.68;;;;;;;14.61;36.69;100206.91;4983509;28;98204;-74
2021/05/15 07:10:31;;;;;;;11.68;10.50;;;;;;;14.69;36.23;100211.31;4982799;28;97684;-73
2021/05/15 07:12:58;;;;;;;12.68;10.05;;;;;;;14.72;36.43;100210.38;4983508;28;97388;-73
2021/05/15 07:15:24;;;;;;;10.60;9.57;;;;;;;14.75;36.42;100205.94;4984220;28;97387;-73
2021/05/15 07:17:51;;;;;;;10.60;9.52;;;;;;;14.75;36.11;100205.94;4981750;28;98721;-74
2021/05/15 07:20:18;;;;;;;10.65;9.65;;;;;;;14.81;36.12;100207.69;4982140;28;98225;-73
2021/05/15 07:22:45;;;;;;;11.07;10.07;;;;;;;14.83;35.81;100203.19;4981386;28;96880;-74
2021/05/15 07:25:12;;;;;;;10.73;9.63;;;;;;;14.86;35.80;100204.06;4984370;28;96956;-73
2021/05/15 07:27:39;;;;;;;10.13;9.20;;;;;;;15.00;36.03;100195.94;4982072;28;97934;-73
2021/05/15 07:30:07;;;;;;;12.20;10.93;;;;;;;15.07;35.83;100193.22;4984591;28;98581;-75
2021/05/15 07:32:34;;;;;;;13.73;12.23;;;;;;;15.17;35.78;100189.56;4985455;28;96916;-74
2021/05/15 07:35:02;;;;;;;11.95;10.02;;;;;;;15.28;35.35;100189.50;4985903;28;97758;-72
2021/05/15 07:37:28;;;;;;;12.07;8.90;;;;;;;15.32;35.29;100195.78;4982818;28;99020;-73
2021/05/15 07:39:56;;;;;;;9.65;8.75;;;;;;;15.37;35.35;100189.47;4983942;28;99471;-72
2021/05/15 07:42:22;;;;;;;9.90;8.90;;;;;;;15.42;35.36;100189.41;4984552;28;97846;-74
2021/05/15 07:44:49;;;;;;;8.80;8.00;;;;;;;15.44;35.27;100182.25;4984499;28;98135;-73
2021/05/15 07:47:16;;;;;;;12.73;11.53;;;;;;;15.35;35.12;100190.38;4983666;28;98295;-73
2021/05/15 07:49:42;;;;;;;11.05;9.60;;;;;;;15.57;35.08;100189.31;4977013;28;98573;-73
2021/05/15 07:52:09;;;;;;;9.82;8.88;;;;;;;15.68;34.69;100187.41;4983061;28;96746;-73
2021/05/15 07:54:36;;;;;;;9.43;8.55;;;;;;;15.73;34.50;100183.78;4986868;28;96819;-72
2021/05/15 07:57:04;;;;;;;8.88;8.02;;;;;;;15.86;34.40;100187.25;4987871;28;99594;-73
2021/05/15 07:59:31;;;;;;;8.55;7.85;;;;;;;15.96;34.66;100184.44;4986245;28;97322;-72
2021/05/15 08:01:57;;;;;;;7.68;6.97;;;;;;;16.06;34.31;100187.97;4986016;28;96819;-72
2021/05/15 08:04:24;;;;;;;7.47;6.78;;;;;;;16.09;34.62;100186.13;4987905;28;97171;-72
2021/05/15 08:06:51;;;;;;;7.03;6.28;;;;;;;16.15;34.28;100184.28;4986064;28;99195;-73
2021/05/15 08:09:18;;;;;;;4.97;4.68;;;;;;;16.14;34.48;100186.09;4985271;28;97405;-72
2021/05/15 08:11:44;;;;;;;4.30;3.88;;;;;;;16.12;34.27;100184.31;4985740;28;97546;-73
2021/05/15 08:14:12;;;;;;;4.50;4.20;;;;;;;15.98;34.14;100179.94;4981565;28;97613;-72
2021/05/15 08:16:39;;;;;;;3.80;3.47;;;;;;;16.14;33.86;100187.88;4980386;28;99986;-72
2021/05/15 08:19:05;;;;;;;2.80;2.60;;;;;;;16.21;33.96;100181.53;4978301;28;96912;-71
2021/05/15 08:21:32;;;;;;;2.67;2.58;;;;;;;16.34;33.52;100181.38;4981180;28;97038;-72
2021/05/15 08:24:00;;;;;;;2.58;2.47;;;;;;;16.41;33.52;100175.03;4981495;28;96812;-72
2021/05/15 08:26:27;;;;;;;3.50;2.50;;;;;;;16.53;33.76;100166.81;4979816;28;98969;-72
2021/05/15 08:28:55;;;;;;;3.58;3.38;;;;;;;16.66;33.41;100164.84;4979074;28;99106;-71
2021/05/15 08:31:23;;;;;;;3.40;3.22;;;;;;;16.69;33.23;100163.00;4981382;28;97041;-72
2021/05/15 08:33:50;;;;;;;3.67;3.47;;;;;;;16.78;33.32;100164.72;4980958;28;97567;-72
2021/05/15 08:36:17;;;;;;;4.22;3.92;;;;;;;16.88;33.07;100160.97;4978132;28;97709;-73
2021/05/15 08:38:43;;;;;;;3.85;3.53;;;;;;;16.94;33.13;100163.59;4977426;28;100260;-73
2021/05/15 08:41:10;;;;;;;4.07;3.78;;;;;;;16.99;33.05;100161.72;4978429;28;97291;-73
2021/05/15 08:43:40;;;;;;;3.53;3.33;;;;;;;17.06;33.13;100158.91;4977674;28;97023;-72
2021/05/15 08:46:12;;;;;;;3.25;3.03;;;;;;;17.12;32.77;100159.72;4978056;28;98403;-74
2021/05/15 08:48:41;;;;;;;3.00;2.90;;;;;;;17.12;32.82;100160.63;4979770;28;97232;-74
2021/05/15 08:51:08;;;;;;;3.38;3.10;;;;;;;17.14;32.91;100161.50;4980598;28;97250;-73
2021/05/15 08:53:37;;;;;;;3.33;3.03;;;;;;;17.15;32.92;100157.88;4979193;28;98451;-73
2021/05/15 08:56:04;;;;;;;5.25;4.85;;;;;;;17.14;32.91;100164.19;4975571;28;99984;-73
2021/05/15 08:58:30;;;;;;;3.58;3.38;;;;;;;17.13;33.14;100153.44;4977153;28;97242;-73
2021/05/15 09:00:57;;;;;;;3.55;3.25;;;;;;;17.14;33.00;100149.84;4979144;28;97309;-73
2021/05/15 09:03:24;;;;;;;4.57;4.28;;;;;;;17.16;32.99;100151.59;4980235;28;97798;-75
2021/05/15 09:05:52;;;;;;;4.10;3.85;;;;;;;17.14;32.90;100156.13;4975952;28;99518;-74
2021/05/15 09:08:22;;;;;;;4.80;4.43;;;;;;;17.11;33.11;100152.59;4994253;28;98935;-74
2021/05/15 09:10:51;;;;;;;4.10;3.90;;;;;;;17.04;33.13;100151.78;4980836;28;97158;-74
2021/05/15 09:13:20;;;;;;;4.50;4.20;;;;;;;17.00;33.33;100150.03;4980408;28;97372;-74
2021/05/15 09:15:49;;;;;;;4.25;3.95;;;;;;;16.96;33.50;100151.03;4980592;28;98223;-74
2021/05/15 09:18:18;;;;;;;3.60;3.17;;;;;;;16.93;33.46;100153.72;4983111;28;102408;-74
2021/05/15 09:20:47;;;;;;;2.28;2.17;;;;;;;16.88;33.34;100144.84;4985107;28;97644;-74
2021/05/15 09:23:20;;;;;;;2.42;2.25;;;;;;;16.89;33.11;100143.94;4983922;28;96946;-72
2021/05/15 09:25:59;;;;;;;2.42;2.33;;;;;;;16.94;33.44;100136.72;4985321;28;98834;-75
2021/05/15 09:28:35;;;;;;;2.10;2.00;;;;;;;17.00;33.31;100140.19;4980551;28;97533;-75
2021/05/15 09:31:14;;;;;;;3.47;2.40;;;;;;;17.14;32.85;100133.72;4984710;28;98858;-75
2021/05/15 09:33:44;;;;;;;3.17;2.15;;;;;;;17.19;33.03;100138.09;4984335;28;97279;-75
2021/05/15 09:36:13;;;;;;;1.98;1.95;;;;;;;17.22;33.05;100131.78;4981494;28;97825;-74
2021/05/15 09:39:06;;;;;;;2.05;1.40;;;;;;;17.12;32.56;100136.44;4982943;28;98822;-75
2021/05/15 09:41:35;;;;;;;1.42;1.40;;;;;;;17.02;32.81;100129.41;4983166;28;97854;-76
2021/05/15 09:44:05;;;;;;;2.15;1.77;;;;;;;16.99;32.84;100134.84;4983381;28;98038;-74
2021/05/15 09:46:34;;;;;;;2.25;1.80;;;;;;;16.94;32.99;100129.50;4980394;28;100688;-74
2021/05/15 09:49:03;;;;;;;2.90;1.90;;;;;;;16.93;32.82;100132.22;4982393;28;97673;-74
2021/05/15 09:51:32;;;;;;;3.67;1.55;;;;;;;16.91;32.70;100134.94;4982781;28;97566;-75
2021/05/15 09:54:16;;;;;;;1.85;1.75;;;;;;;16.94;31.99;100123.28;4981998;28;97564;-74
2021/05/15 09:56:55;;;;;;;1.75;1.67;;;;;;;16.94;32.04;100120.59;4980886;28;100945;-74
2021/05/15 09:59:28;;;;;;;2.25;1.95;;;;;;;16.92;32.49;100111.66;4982836;28;98893;-75
2021/05/15 10:01:57;;;;;;;2.47;2.13;;;;;;;16.98;32.56;100116.94;4982603;28;97998;-75
2021/05/15 10:04:25;;;;;;;1.85;1.85;;;;;;;17.02;32.50;100129.41;4983313;28;97690;-75
2021/05/15 10:06:54;;;;;;;2.33;2.10;;;;;;;17.01;32.28;100106.13;4981716;28;98069;-75
2021/05/15 10:09:28;;;;;;;2.60;2.40;;;;;;;16.87;31.38;100109.03;4980486;28;98000;-75
2021/05/15 10:11:56;;;;;;;2.20;2.10;;;;;;;17.02;31.52;100099.84;4984028;28;97681;-74
2021/05/15 10:14:24;;;;;;;4.38;1.98;;;;;;;17.15;31.73;100101.41;4983312;28;96845;-76
2021/05/15 10:16:52;;;;;;;2.58;2.00;;;;;;;17.28;31.52;100097.59;4981642;28;97869;-75
2021/05/15 10:19:20;;;;;;;1.98;1.88;;;;;;;17.41;31.35;100088.47;4979943;28;98244;-75
2021/05/15 10:21:48;;;;;;;1.63;1.63;;;;;;;17.56;31.51;100079.22;4983694;28;96892;-72
2021/05/15 10:24:18;;;;;;;4.03;3.65;;;;;;;17.63;31.38;100079.06;4982105;28;97947;-69
2021/05/15 10:26:54;;;;;;;6.03;4.85;;;;;;;17.68;30.97;100084.34;4981601;28;97833;-71
2021/05/15 10:29:22;;;;;;;3.20;3.00;;;;;;;17.77;31.21;100077.00;4976556;28;97724;-71
2021/05/15 10:31:53;;;;;;;2.08;1.92;;;;;;;17.89;31.19;100073.19;4982775;28;97197;-71
2021/05/15 10:34:30;;;;;;;2.75;1.92;;;;;;;18.00;30.70;100081.94;4983655;28;98181;-71
2021/05/15 10:36:58;;;;;;;2.20;2.10;;;;;;;18.10;30.90;100071.88;4984351;28;99051;-71
2021/05/15 10:39:29;;;;;;;5.90;5.30;;;;;;;18.25;30.67;100060.78;4983539;28;97974;-72
2021/05/15 10:41:58;;;;;;;3.67;3.38;;;;;;;18.32;30.82;100057.03;4984242;28;97582;-71
2021/05/15 10:44:27;;;;;;;2.08;1.98;;;;;;;18.42;30.54;100058.63;4986044;28;97176;-72
2021/05/15 10:46:56;;;;;;;2.22;2.13;;;;;;;18.52;30.38;100054.78;4983390;28;98180;-72
2021/05/15 10:49:25;;;;;;;2.33;2.08;;;;;;;18.52;30.19;100041.31;4983520;28;98428;-72
2021/05/15 10:51:55;;;;;;;1.60;1.58;;;;;;;18.52;30.44;100049.38;4985244;28;97787;-72
2021/05/15 10:54:31;;;;;;;1.83;1.73;;;;;;;18.62;29.95;100045.59;4984767;28;97330;-72
2021/05/15 10:57:05;;;;;;;2.15;1.98;;;;;;;18.68;30.05;100045.41;4999978;28;97859;-72
2021/05/15 10:59:34;;;;;;;6.13;4.93;;;;;;;18.71;30.34;100029.22;4982733;28;97805;-72
2021/05/15 11:02:06;;;;;;;1.95;1.85;;;;;;;18.74;30.23;100034.53;4985719;28;96950;-73
2021/05/15 11:04:35;;;;;;;1.85;1.50;;;;;;;18.78;30.07;100028.16;4985652;28;96953;-72
2021/05/15 11:07:09;;;;;;;1.40;1.40;;;;;;;18.75;29.90;100030.94;4985318;28;97406;-72
2021/05/15 11:10:01;;;;;;;1.30;1.30;;;;;;;18.74;29.93;100027.34;4982159;28;98859;-72
2021/05/15 11:12:37;;;;;;;1.80;1.70;;;;;;;18.78;29.90;100030.84;4984825;28;97510;-72
2021/05/15 11:15:08;;;;;;;1.70;1.70;;;;;;;18.85;29.84;100022.56;4984716;28;97598;-72
2021/05/15 11:17:35;;;;;;;1.80;1.70;;;;;;;18.90;29.87;100022.44;4984692;28;97847;-72
2021/05/15 11:20:10;;;;;;;1.63;1.52;;;;;;;18.95;29.56;100023.22;4980674;28;99238;-74
2021/05/15 11:22:40;;;;;;;1.55;1.55;;;;;;;19.06;29.48;100025.66;4982241;28;97222;-73